Time;durP1;ratioP1;P1;durP2;ratioP2;P2;SDS_P1;SDS_P2;PMS_P1;PMS_P2;Temp;Humidity;BMP_temperature;BMP_pressure;BME280_temperature;BME280_humidity;BME280_pressure;Samples;Min_cycle;Max_cycle;Signal;HPM_P1;HPM_P2
2021/10/14 00:00:13;;;;;;;6.73;6.23;;;;;;;;;;6238254;28;20319;-54
2021/10/14 00:03:34;;;;;;;7.93;7.20;;;;;;;;;;6239698;28;20201;-53
2021/10/14 00:06:55;;;;;;;7.40;6.70;;;;;;;;;;6240047;28;20232;-51
2021/10/14 00:10:15;;;;;;;6.77;6.27;;;;;;;;;;6241446;28;20687;-53
2021/10/14 00:13:37;;;;;;;7.37;6.67;;;;;;;;;;6241491;28;20511;-54
2021/10/14 00:16:58;;;;;;;7.90;7.30;;;;;;;;;;6235645;28;20228;-52
2021/10/14 00:20:19;;;;;;;8.20;7.50;;;;;;;;;;6232356;28;20260;-52
2021/10/14 00:23:39;;;;;;;8.23;7.63;;;;;;;;;;6236045;28;20678;-54
2021/10/14 00:27:00;;;;;;;8.37;7.53;;;;;;;;;;6233445;28;20229;-53
2021/10/14 00:30:22;;;;;;;9.10;8.40;;;;;;;;;;6235084;28;20244;-54
2021/10/14 00:33:42;;;;;;;8.87;8.17;;;;;;;;;;6229312;28;20237;-53
2021/10/14 00:37:03;;;;;;;8.53;7.60;;;;;;;;;;6237985;28;20508;-52
2021/10/14 00:40:23;;;;;;;8.00;7.30;;;;;;;;;;6233805;28;20320;-52
2021/10/14 00:43:44;;;;;;;7.87;7.20;;;;;;;;;;6238580;28;20193;-49
2021/10/14 00:47:06;;;;;;;8.57;7.77;;;;;;;;;;6236237;28;20838;-52
2021/10/14 00:50:26;;;;;;;8.87;8.17;;;;;;;;;;6228931;28;20252;-50
2021/10/14 00:53:47;;;;;;;8.40;7.67;;;;;;;;;;6230158;28;20229;-54
2021/10/14 00:57:08;;;;;;;9.50;8.70;;;;;;;;;;6233777;28;20546;-52
2021/10/14 01:00:28;;;;;;;9.83;9.07;;;;;;;;;;6232261;28;20618;-52
2021/10/14 01:03:50;;;;;;;11.33;10.43;;;;;;;;;;6235632;28;20193;-51
2021/10/14 01:07:11;;;;;;;12.00;11.00;;;;;;;;;;6236342;28;20228;-52
2021/10/14 01:10:31;;;;;;;12.00;10.77;;;;;;;;;;6237089;28;20797;-51
2021/10/14 01:13:52;;;;;;;12.20;11.10;;;;;;;;;;6233544;28;20221;-52
2021/10/14 01:17:12;;;;;;;11.60;10.50;;;;;;;;;;6232162;28;20232;-53
2021/10/14 01:20:34;;;;;;;12.23;11.13;;;;;;;;;;6235710;28;20233;-54
2021/10/14 01:23:55;;;;;;;10.53;9.57;;;;;;;;;;6235811;28;20189;-52
2021/10/14 01:27:15;;;;;;;11.87;10.60;;;;;;;;;;6230408;28;20268;-55
2021/10/14 01:30:36;;;;;;;11.77;10.70;;;;;;;;;;6234371;28;20617;-53
2021/10/14 01:33:57;;;;;;;14.43;11.93;;;;;;;;;;6233733;28;20713;-51
2021/10/14 01:37:18;;;;;;;12.10;10.97;;;;;;;;;;6236555;28;20224;-48
2021/10/14 01:40:39;;;;;;;12.17;11.07;;;;;;;;;;6239454;28;20233;-54
2021/10/14 01:43:59;;;;;;;14.03;12.63;;;;;;;;;;6234049;28;20189;-51
2021/10/14 01:47:20;;;;;;;11.77;10.67;;;;;;;;;;6234558;28;20233;-51
2021/10/14 01:50:41;;;;;;;10.50;9.63;;;;;;;;;;6236064;28;20236;-53
2021/10/14 01:54:03;;;;;;;11.43;10.27;;;;;;;;;;6232140;28;20335;-50
2021/10/14 01:57:24;;;;;;;11.00;10.00;;;;;;;;;;6234899;28;20315;-55
2021/10/14 02:00:44;;;;;;;10.30;9.40;;;;;;;;;;6234754;28;20221;-52
2021/10/14 02:04:05;;;;;;;10.33;9.53;;;;;;;;;;6233843;28;20200;-53
2021/10/14 02:07:25;;;;;;;12.33;9.77;;;;;;;;;;6233058;28;20233;-50
2021/10/14 02:10:47;;;;;;;10.57;9.63;;;;;;;;;;6233655;28;20779;-53
2021/10/14 02:14:07;;;;;;;10.37;9.47;;;;;;;;;;6236310;28;20209;-52
2021/10/14 02:17:28;;;;;;;10.77;9.67;;;;;;;;;;6235472;28;20572;-53
2021/10/14 02:20:48;;;;;;;9.27;8.47;;;;;;;;;;6235483;28;20342;-51
2021/10/14 02:24:09;;;;;;;9.47;8.57;;;;;;;;;;6240130;28;20629;-54
2021/10/14 02:27:31;;;;;;;9.93;9.03;;;;;;;;;;6236226;28;20520;-52
2021/10/14 02:30:51;;;;;;;8.27;7.57;;;;;;;;;;6236375;28;20232;-53
2021/10/14 02:34:12;;;;;;;7.50;6.90;;;;;;;;;;6236874;28;20204;-51
2021/10/14 02:37:33;;;;;;;7.00;6.40;;;;;;;;;;6237010;28;20836;-53
2021/10/14 02:40:53;;;;;;;8.77;7.67;;;;;;;;;;6230772;28;20228;-49
2021/10/14 02:44:15;;;;;;;8.50;7.80;;;;;;;;;;6233513;28;20201;-52
2021/10/14 02:47:36;;;;;;;8.80;8.00;;;;;;;;;;6235625;28;20535;-54
2021/10/14 02:50:56;;;;;;;11.73;9.70;;;;;;;;;;6234754;28;20236;-54
2021/10/14 02:54:17;;;;;;;11.23;10.10;;;;;;;;;;6237165;28;20248;-51
2021/10/14 02:57:37;;;;;;;13.30;12.00;;;;;;;;;;6231990;28;20589;-51
2021/10/14 03:01:00;;;;;;;14.37;12.93;;;;;;;;;;6231868;28;20232;-51
2021/10/14 03:04:21;;;;;;;13.20;11.80;;;;;;;;;;6232529;28;20213;-54
2021/10/14 03:07:42;;;;;;;13.27;11.97;;;;;;;;;;6233046;28;20299;-54
2021/10/14 03:11:02;;;;;;;14.77;13.37;;;;;;;;;;6231327;28;20232;-54
2021/10/14 03:14:23;;;;;;;14.30;12.73;;;;;;;;;;6230763;28;20650;-53
2021/10/14 03:17:45;;;;;;;14.17;12.73;;;;;;;;;;6232100;28;20228;-53
2021/10/14 03:21:05;;;;;;;14.67;12.40;;;;;;;;;;6236451;28;20228;-55
2021/10/14 03:24:26;;;;;;;11.67;10.67;;;;;;;;;;6237994;28;20295;-53
2021/10/14 03:27:46;;;;;;;10.00;9.10;;;;;;;;;;6231139;28;20220;-50
2021/10/14 03:31:07;;;;;;;10.10;9.30;;;;;;;;;;6232829;28;20228;-51
2021/10/14 03:34:29;;;;;;;9.57;8.77;;;;;;;;;;6234127;28;20554;-55
2021/10/14 03:37:50;;;;;;;10.57;9.47;;;;;;;;;;6232561;28;20233;-53
2021/10/14 03:41:11;;;;;;;8.57;7.77;;;;;;;;;;6235777;28;20251;-50
2021/10/14 03:44:31;;;;;;;9.67;8.87;;;;;;;;;;6232923;28;20611;-52
2021/10/14 03:47:51;;;;;;;9.93;9.03;;;;;;;;;;6228184;28;20512;-52
2021/10/14 03:51:13;;;;;;;7.70;7.10;;;;;;;;;;6230582;28;20251;-51
2021/10/14 03:54:34;;;;;;;8.20;7.47;;;;;;;;;;6232718;28;20228;-48
2021/10/14 03:57:55;;;;;;;7.33;6.57;;;;;;;;;;6235915;28;20193;-55
2021/10/14 04:01:16;;;;;;;6.87;6.37;;;;;;;;;;6235467;28;20237;-50
2021/10/14 04:04:36;;;;;;;6.73;6.13;;;;;;;;;;6230456;28;20204;-53
2021/10/14 04:07:58;;;;;;;5.97;5.37;;;;;;;;;;6231890;28;20205;-50
2021/10/14 04:11:18;;;;;;;5.63;5.23;;;;;;;;;;6231987;28;20232;-54
2021/10/14 04:14:39;;;;;;;5.73;5.33;;;;;;;;;;6234211;28;20264;-50
2021/10/14 04:17:59;;;;;;;4.80;4.23;;;;;;;;;;6234037;28;20236;-55
2021/10/14 04:21:20;;;;;;;4.13;3.73;;;;;;;;;;6232855;28;20666;-53
2021/10/14 04:24:42;;;;;;;3.73;3.43;;;;;;;;;;6230885;28;20201;-49
2021/10/14 04:28:03;;;;;;;2.97;2.77;;;;;;;;;;6229647;28;20615;-53
2021/10/14 04:31:23;;;;;;;3.73;3.43;;;;;;;;;;6230368;28;20240;-51
2021/10/14 04:34:44;;;;;;;3.13;2.93;;;;;;;;;;6231710;28;20264;-48
2021/10/14 04:38:05;;;;;;;3.30;3.10;;;;;;;;;;6235071;28;20201;-55
2021/10/14 04:41:27;;;;;;;4.13;3.83;;;;;;;;;;6229274;28;20232;-51
2021/10/14 04:44:47;;;;;;;3.70;3.07;;;;;;;;;;6241701;28;20598;-54
2021/10/14 04:48:08;;;;;;;3.23;2.97;;;;;;;;;;6235481;28;20280;-53
2021/10/14 04:51:28;;;;;;;3.30;3.10;;;;;;;;;;6236265;28;20228;-51
2021/10/14 04:54:49;;;;;;;3.50;3.20;;;;;;;;;;6240249;28;20221;-52
2021/10/14 04:58:10;;;;;;;4.40;4.10;;;;;;;;;;6233606;28;20228;-51
2021/10/14 05:01:31;;;;;;;4.30;4.00;;;;;;;;;;6233385;28;20859;-52
2021/10/14 05:04:52;;;;;;;4.47;3.67;;;;;;;;;;6237394;28;20721;-52
2021/10/14 05:08:13;;;;;;;3.70;3.23;;;;;;;;;;6233559;28;20200;-49
2021/10/14 05:11:33;;;;;;;3.73;3.43;;;;;;;;;;6232336;28;20228;-50
2021/10/14 05:14:55;;;;;;;3.43;3.23;;;;;;;;;;6238695;28;20319;-52
2021/10/14 05:18:15;;;;;;;4.67;4.27;;;;;;;;;;6239788;28;20437;-53
2021/10/14 05:21:36;;;;;;;5.07;4.57;;;;;;;;;;6231940;28;20263;-54
2021/10/14 05:24:56;;;;;;;5.63;5.13;;;;;;;;;;6233274;28;20240;-52
2021/10/14 05:28:17;;;;;;;6.80;6.27;;;;;;;;;;6236570;28;20512;-47
2021/10/14 05:31:39;;;;;;;6.57;5.97;;;;;;;;;;6232020;28;20228;-50
2021/10/14 05:34:59;;;;;;;7.40;5.90;;;;;;;;;;6233465;28;20630;-53
2021/10/14 05:38:20;;;;;;;8.97;6.63;;;;;;;;;;6231471;28;20782;-55
2021/10/14 05:41:41;;;;;;;8.47;7.67;;;;;;;;;;6230593;28;20240;-51
2021/10/14 05:45:01;;;;;;;11.40;10.03;;;;;;;;;;6235999;28;20232;-54
2021/10/14 05:48:23;;;;;;;10.13;9.07;;;;;;;;;;6230476;28;20248;-51
2021/10/14 05:51:44;;;;;;;12.47;10.47;;;;;;;;;;6232472;28;20625;-56
2021/10/14 05:55:05;;;;;;;13.90;10.57;;;;;;;;;;6231238;28;20236;-53
2021/10/14 05:58:25;;;;;;;12.57;11.37;;;;;;;;;;6231514;28;20197;-57
2021/10/14 06:01:46;;;;;;;14.20;10.43;;;;;;;;;;6231749;28;20645;-53
2021/10/14 06:05:08;;;;;;;13.50;11.83;;;;;;;;;;6230345;28;20311;-50
2021/10/14 06:08:29;;;;;;;13.73;10.80;;;;;;;;;;6230528;28;20319;-54
2021/10/14 06:11:50;;;;;;;13.20;10.17;;;;;;;;;;6231120;28;20319;-52
2021/10/14 06:15:10;;;;;;;12.83;10.50;;;;;;;;;;6232979;28;20328;-55
2021/10/14 06:18:31;;;;;;;12.47;10.07;;;;;;;;;;6230493;28;20277;-51
2021/10/14 06:21:53;;;;;;;10.50;9.37;;;;;;;;;;6228126;28;20228;-51
2021/10/14 06:25:14;;;;;;;13.23;9.93;;;;;;;;;;6234281;28;20228;-52
2021/10/14 06:28:34;;;;;;;13.23;9.53;;;;;;;;;;6222968;28;20200;-55
2021/10/14 06:31:55;;;;;;;15.70;9.40;;;;;;;;;;6227353;28;20228;-53
2021/10/14 06:35:16;;;;;;;10.67;8.20;;;;;;;;;;6220874;28;20228;-54
2021/10/14 06:38:37;;;;;;;10.47;8.63;;;;;;;;;;6215239;28;20753;-52
2021/10/14 06:42:01;;;;;;;8.30;7.43;;;;;;;;;;6218308;28;20240;-53
2021/10/14 06:45:21;;;;;;;10.97;7.60;;;;;;;;;;6226874;28;20228;-54
2021/10/14 06:48:42;;;;;;;27.97;9.47;;;;;;;;;;6230413;28;20217;-56
2021/10/14 06:52:03;;;;;;;10.60;7.60;;;;;;;;;;6221756;28;20240;-53
2021/10/14 06:55:25;;;;;;;12.47;8.67;;;;;;;;;;6224249;28;20235;-51
2021/10/14 06:58:45;;;;;;;11.03;9.53;;;;;;;;;;6227321;28;20205;-56
2021/10/14 07:02:06;;;;;;;10.47;8.83;;;;;;;;;;6232233;28;20236;-50
2021/10/14 07:05:27;;;;;;;12.20;9.13;;;;;;;;;;6232272;28;20236;-51
2021/10/14 07:08:47;;;;;;;12.17;8.80;;;;;;;;;;6222243;28;20633;-51
2021/10/14 07:12:11;;;;;;;10.50;8.93;;;;;;;;;;6225045;28;20251;-54
2021/10/14 07:15:32;;;;;;;11.53;8.77;;;;;;;;;;6226087;28;20233;-52
2021/10/14 07:18:54;;;;;;;8.20;7.37;;;;;;;;;;6221609;28;20200;-56
2021/10/14 07:22:14;;;;;;;9.60;7.13;;;;;;;;;;6225085;28;20236;-55
2021/10/14 07:25:35;;;;;;;8.27;6.90;;;;;;;;;;6221864;28;20270;-52
2021/10/14 07:28:57;;;;;;;7.30;6.67;;;;;;;;;;6216695;28;20201;-52
2021/10/14 07:32:18;;;;;;;10.23;7.00;;;;;;;;;;6215606;28;20228;-53
2021/10/14 07:35:39;;;;;;;8.07;6.33;;;;;;;;;;6187465;28;20237;-52
2021/10/14 07:39:01;;;;;;;6.50;4.90;;;;;;;;;;6222858;28;20220;-53
2021/10/14 07:42:23;;;;;;;10.67;5.53;;;;;;;;;;6228046;28;20229;-54
2021/10/14 07:45:47;;;;;;;8.13;5.67;;;;;;;;;;6228656;28;20236;-51
2021/10/14 07:49:07;;;;;;;9.90;6.07;;;;;;;;;;6224816;28;20200;-54
2021/10/14 07:52:28;;;;;;;7.20;5.70;;;;;;;;;;6230848;28;20295;-55
2021/10/14 07:55:48;;;;;;;8.73;5.90;;;;;;;;;;6223591;28;20232;-50
2021/10/14 07:59:09;;;;;;;9.27;6.37;;;;;;;;;;6230087;28;20216;-53
2021/10/14 08:02:31;;;;;;;9.67;5.33;;;;;;;;;;6232923;28;20225;-51
2021/10/14 08:05:52;;;;;;;10.00;6.67;;;;;;;;;;6232687;28;20579;-56
2021/10/14 08:09:12;;;;;;;8.63;6.83;;;;;;;;;;6229055;28;20449;-54
2021/10/14 08:12:33;;;;;;;7.20;6.30;;;;;;;;;;6227441;28;20300;-55
2021/10/14 08:15:53;;;;;;;8.30;6.20;;;;;;;;;;6230081;28;20631;-55
2021/10/14 08:19:15;;;;;;;11.97;7.23;;;;;;;;;;6237794;28;20201;-52
2021/10/14 08:22:36;;;;;;;10.30;7.00;;;;;;;;;;6233591;28;20221;-52
2021/10/14 08:25:57;;;;;;;8.93;6.53;;;;;;;;;;6239384;28;20225;-52
2021/10/14 08:29:17;;;;;;;7.70;6.63;;;;;;;;;;6243746;28;20197;-50
2021/10/14 08:32:38;;;;;;;11.90;7.57;;;;;;;;;;6242187;28;20224;-53
2021/10/14 08:36:00;;;;;;;11.37;7.67;;;;;;;;;;6240322;28;20264;-51
2021/10/14 08:39:20;;;;;;;9.50;7.37;;;;;;;;;;6242234;28;20221;-55
2021/10/14 08:42:41;;;;;;;7.97;6.87;;;;;;;;;;6234337;28;20229;-50
2021/10/14 08:46:02;;;;;;;12.20;6.47;;;;;;;;;;6238779;28;20221;-53
2021/10/14 08:49:23;;;;;;;8.80;7.47;;;;;;;;;;6234440;28;20205;-52
2021/10/14 08:52:45;;;;;;;9.40;6.23;;;;;;;;;;6236482;28;20673;-53
2021/10/14 08:56:06;;;;;;;8.13;5.97;;;;;;;;;;6241866;28;20255;-55
2021/10/14 08:59:26;;;;;;;8.53;5.50;;;;;;;;;;6232583;28;20244;-53
2021/10/14 09:02:47;;;;;;;6.07;5.37;;;;;;;;;;6235685;28;20256;-51
2021/10/14 09:06:09;;;;;;;7.03;4.67;;;;;;;;;;6237591;28;20596;-53
2021/10/14 09:09:38;;;;;;;6.40;4.03;;;;;;;;;;6239800;28;20201;-51
2021/10/14 09:12:59;;;;;;;7.37;4.47;;;;;;;;;;6238510;28;20231;-54
2021/10/14 09:16:23;;;;;;;4.50;4.10;;;;;;;;;;6238767;28;20623;-50
2021/10/14 09:19:44;;;;;;;7.53;4.13;;;;;;;;;;6236639;28;20443;-52
2021/10/14 09:23:10;;;;;;;5.50;3.60;;;;;;;;;;6240100;28;20213;-52
2021/10/14 09:26:33;;;;;;;7.30;4.50;;;;;;;;;;6236879;28;20220;-50
2021/10/14 09:29:59;;;;;;;11.50;4.43;;;;;;;;;;6237331;28;20279;-52
2021/10/14 09:33:30;;;;;;;7.03;3.47;;;;;;;;;;6238780;28;20228;-50
2021/10/14 09:36:50;;;;;;;4.80;3.43;;;;;;;;;;6235188;28;20224;-55
2021/10/14 09:40:14;;;;;;;3.83;2.87;;;;;;;;;;6234839;28;20229;-56
2021/10/14 09:43:35;;;;;;;4.10;3.53;;;;;;;;;;6242176;28;20198;-57
2021/10/14 09:46:57;;;;;;;4.93;2.47;;;;;;;;;;6234948;28;20221;-50
2021/10/14 09:50:20;;;;;;;3.43;1.93;;;;;;;;;;6240542;28;20228;-54
2021/10/14 09:53:40;;;;;;;3.10;2.60;;;;;;;;;;6239481;28;20193;-52
2021/10/14 09:57:01;;;;;;;2.47;1.73;;;;;;;;;;6235403;28;20260;-53
2021/10/14 10:00:24;;;;;;;4.73;1.63;;;;;;;;;;6238048;28;20232;-54
2021/10/14 10:03:44;;;;;;;3.13;1.80;;;;;;;;;;6233877;28;20197;-47
2021/10/14 10:07:05;;;;;;;3.07;2.00;;;;;;;;;;6240785;28;20216;-54
2021/10/14 10:10:27;;;;;;;2.70;1.60;;;;;;;;;;6232307;28;20241;-53
2021/10/14 10:13:49;;;;;;;2.57;2.37;;;;;;;;;;6239208;28;20566;-56
2021/10/14 10:17:14;;;;;;;1.90;1.70;;;;;;;;;;6232293;28;20307;-52
2021/10/14 10:20:37;;;;;;;2.97;2.43;;;;;;;;;;6211793;28;20229;-52
2021/10/14 10:23:58;;;;;;;3.33;2.53;;;;;;;;;;6237591;28;20299;-51
2021/10/14 10:27:32;;;;;;;2.37;2.17;;;;;;;;;;6233130;28;20220;-54
2021/10/14 10:30:53;;;;;;;2.33;2.13;;;;;;;;;;6226125;28;20228;-50
2021/10/14 10:34:47;;;;;;;3.53;2.47;;;;;;;;;;6232699;28;20201;-50
2021/10/14 10:38:15;;;;;;;3.67;3.27;;;;;;;;;;6231647;28;20240;-51
2021/10/14 10:41:36;;;;;;;3.67;3.10;;;;;;;;;;6235331;28;20232;-51
2021/10/14 10:45:06;;;;;;;2.97;2.77;;;;;;;;;;6236318;28;20224;-51
2021/10/14 10:48:34;;;;;;;2.97;2.77;;;;;;;;;;6235848;28;20196;-54
2021/10/14 10:51:56;;;;;;;2.93;2.63;;;;;;;;;;6239992;28;22066;-51
2021/10/14 10:55:34;;;;;;;3.10;2.37;;;;;;;;;;6234648;28;20244;-53
2021/10/14 10:58:55;;;;;;;2.90;2.33;;;;;;;;;;6237242;28;20590;-54
2021/10/14 11:02:16;;;;;;;4.20;3.00;;;;;;;;;;6240321;28;20228;-55
2021/10/14 11:05:47;;;;;;;3.10;2.90;;;;;;;;;;6232130;28;20224;-51
2021/10/14 11:09:12;;;;;;;3.57;2.30;;;;;;;;;;6230994;28;20201;-55
2021/10/14 11:12:33;;;;;;;3.70;3.40;;;;;;;;;;6231471;28;20725;-55
2021/10/14 11:15:55;;;;;;;3.93;2.90;;;;;;;;;;6229771;28;20228;-53
2021/10/14 11:19:17;;;;;;;3.50;3.20;;;;;;;;;;6233384;28;20502;-55
2021/10/14 11:22:37;;;;;;;3.87;2.60;;;;;;;;;;6222327;28;20216;-55
2021/10/14 11:26:03;;;;;;;4.67;2.67;;;;;;;;;;6230214;28;20530;-55
2021/10/14 11:29:27;;;;;;;2.40;2.17;;;;;;;;;;6227958;28;20217;-52
2021/10/14 11:32:57;;;;;;;3.07;2.50;;;;;;;;;;6237233;28;20220;-49
2021/10/14 11:36:19;;;;;;;3.50;2.60;;;;;;;;;;6228916;28;20224;-52
2021/10/14 11:39:40;;;;;;;2.67;2.47;;;;;;;;;;6233146;28;20229;-53
2021/10/14 11:43:03;;;;;;;3.40;2.73;;;;;;;;;;6239097;28;20193;-54
2021/10/14 11:46:24;;;;;;;4.07;3.10;;;;;;;;;;6232221;28;20260;-51
2021/10/14 11:49:46;;;;;;;3.53;2.50;;;;;;;;;;6232953;28;20205;-52
2021/10/14 11:53:07;;;;;;;3.37;2.87;;;;;;;;;;6218046;28;20629;-51
2021/10/14 11:56:27;;;;;;;3.53;2.73;;;;;;;;;;6234241;28;20783;-54
2021/10/14 11:59:49;;;;;;;3.60;2.67;;;;;;;;;;6237971;28;20192;-48
2021/10/14 12:03:10;;;;;;;5.97;3.63;;;;;;;;;;6242377;28;20200;-52
2021/10/14 12:06:31;;;;;;;4.13;2.83;;;;;;;;;;6240781;28;20771;-52
2021/10/14 12:09:53;;;;;;;7.30;2.90;;;;;;;;;;6240307;28;20236;-51
2021/10/14 12:13:15;;;;;;;4.33;3.40;;;;;;;;;;6237302;28;20768;-47
2021/10/14 12:16:37;;;;;;;4.93;4.07;;;;;;;;;;6238721;28;20536;-53
2021/10/14 12:19:57;;;;;;;7.40;4.27;;;;;;;;;;6240472;28;20228;-49
2021/10/14 12:23:17;;;;;;;10.27;4.23;;;;;;;;;;6243132;28;20200;-49
2021/10/14 12:26:39;;;;;;;6.03;4.07;;;;;;;;;;6240411;28;20224;-48
2021/10/14 12:30:00;;;;;;;6.90;4.73;;;;;;;;;;6236321;28;20500;-51
2021/10/14 12:33:21;;;;;;;5.87;4.70;;;;;;;;;;6233378;28;20213;-49
2021/10/14 12:36:43;;;;;;;7.23;5.57;;;;;;;;;;6238739;28;20227;-50
2021/10/14 12:40:14;;;;;;;5.57;5.07;;;;;;;;;;6232826;28;20627;-51
2021/10/14 12:43:40;;;;;;;6.80;5.40;;;;;;;;;;6237179;28;20204;-53
2021/10/14 12:47:02;;;;;;;6.33;5.80;;;;;;;;;;6234747;28;20228;-53
2021/10/14 12:50:41;;;;;;;7.70;5.20;;;;;;;;;;6238145;28;20224;-52
2021/10/14 12:54:03;;;;;;;6.50;5.07;;;;;;;;;;6238937;28;20641;-52
2021/10/14 12:57:23;;;;;;;5.50;4.67;;;;;;;;;;6237300;28;20228;-53
2021/10/14 13:00:43;;;;;;;6.20;4.87;;;;;;;;;;6239397;28;20232;-51
2021/10/14 13:04:04;;;;;;;8.10;5.73;;;;;;;;;;6240284;28;20204;-54
2021/10/14 13:07:26;;;;;;;5.43;4.93;;;;;;;;;;6238768;28;20263;-53
2021/10/14 13:10:47;;;;;;;7.93;5.40;;;;;;;;;;6238763;28;20232;-51
2021/10/14 13:14:08;;;;;;;8.23;4.93;;;;;;;;;;6238340;28;20196;-52
2021/10/14 13:17:29;;;;;;;7.97;5.07;;;;;;;;;;6238134;28;20232;-54
2021/10/14 13:20:49;;;;;;;19.53;6.43;;;;;;;;;;6238422;28;20240;-55
2021/10/14 13:24:11;;;;;;;9.00;5.23;;;;;;;;;;6236852;28;20197;-51
2021/10/14 13:27:32;;;;;;;7.90;5.33;;;;;;;;;;6236717;28;20228;-53
2021/10/14 13:30:52;;;;;;;5.53;4.97;;;;;;;;;;6233181;28;20233;-51
2021/10/14 13:34:13;;;;;;;7.97;5.80;;;;;;;;;;6242301;28;20254;-53
2021/10/14 13:37:34;;;;;;;10.80;5.27;;;;;;;;;;6241115;28;20248;-48
2021/10/14 13:40:58;;;;;;;8.97;5.53;;;;;;;;;;6236578;28;20311;-50
2021/10/14 13:44:22;;;;;;;8.20;5.47;;;;;;;;;;6241504;28;20248;-52
2021/10/14 13:47:43;;;;;;;6.30;5.70;;;;;;;;;;6237660;28;20335;-53
2021/10/14 13:51:04;;;;;;;7.00;6.30;;;;;;;;;;6235615;28;20588;-51
2021/10/14 13:54:24;;;;;;;10.97;5.83;;;;;;;;;;6228886;28;20473;-49
2021/10/14 13:57:46;;;;;;;7.43;6.10;;;;;;;;;;6237746;28;20213;-51
2021/10/14 14:01:07;;;;;;;7.10;5.53;;;;;;;;;;6232960;28;20228;-48
2021/10/14 14:04:28;;;;;;;8.13;5.90;;;;;;;;;;6236681;28;20194;-50
2021/10/14 14:07:48;;;;;;;6.47;5.50;;;;;;;;;;6235094;28;20208;-51
2021/10/14 14:11:10;;;;;;;5.73;5.20;;;;;;;;;;6234426;28;20263;-48
2021/10/14 14:14:32;;;;;;;10.33;4.80;;;;;;;;;;6235604;28;21705;-53
2021/10/14 14:17:53;;;;;;;7.37;5.27;;;;;;;;;;6230879;28;20233;-52
2021/10/14 14:21:14;;;;;;;8.40;5.03;;;;;;;;;;6234213;28;20597;-54
2021/10/14 14:24:34;;;;;;;8.33;4.67;;;;;;;;;;6232781;28;20193;-54
2021/10/14 14:27:55;;;;;;;5.70;4.97;;;;;;;;;;6240984;28;20212;-51
2021/10/14 14:31:17;;;;;;;9.97;4.70;;;;;;;;;;6235332;28;20220;-55
2021/10/14 14:34:38;;;;;;;8.23;4.30;;;;;;;;;;6239507;28;20200;-52
2021/10/14 14:37:59;;;;;;;6.67;4.17;;;;;;;;;;6228603;28;20224;-53
2021/10/14 14:41:20;;;;;;;7.80;5.53;;;;;;;;;;6214936;28;20319;-50
2021/10/14 14:44:40;;;;;;;7.27;4.77;;;;;;;;;;6218009;28;20206;-52
2021/10/14 14:48:02;;;;;;;5.57;4.17;;;;;;;;;;6223909;28;20197;-50
2021/10/14 14:51:22;;;;;;;6.70;5.67;;;;;;;;;;6239017;28;20233;-52
2021/10/14 14:54:43;;;;;;;6.70;4.33;;;;;;;;;;6239046;28;20208;-49
2021/10/14 14:58:03;;;;;;;15.03;5.13;;;;;;;;;;6239401;28;20213;-51
2021/10/14 15:01:24;;;;;;;5.17;4.67;;;;;;;;;;6235317;28;20236;-51
2021/10/14 15:04:47;;;;;;;4.83;4.00;;;;;;;;;;6240366;28;20291;-51
2021/10/14 15:08:08;;;;;;;7.03;4.57;;;;;;;;;;6238566;28;20193;-49
2021/10/14 15:11:28;;;;;;;7.97;4.80;;;;;;;;;;6232100;28;20229;-50
2021/10/14 15:14:49;;;;;;;7.57;5.20;;;;;;;;;;6236293;28;20209;-50
2021/10/14 15:18:10;;;;;;;7.57;6.07;;;;;;;;;;6227578;28;20258;-51
2021/10/14 15:21:31;;;;;;;10.03;5.63;;;;;;;;;;6234635;28;20263;-50
2021/10/14 15:24:52;;;;;;;5.63;4.43;;;;;;;;;;6229584;28;20240;-52
2021/10/14 15:28:13;;;;;;;5.53;4.97;;;;;;;;;;6222831;28;20189;-53
2021/10/14 15:31:34;;;;;;;8.67;4.97;;;;;;;;;;6229230;28;20236;-55
2021/10/14 15:34:54;;;;;;;7.27;5.43;;;;;;;;;;6230423;28;20232;-51
2021/10/14 15:38:20;;;;;;;10.60;5.53;;;;;;;;;;6233118;28;20221;-49
2021/10/14 15:41:41;;;;;;;9.90;5.60;;;;;;;;;;6231004;28;20224;-52
2021/10/14 15:45:01;;;;;;;5.93;5.43;;;;;;;;;;6237084;28;20602;-54
2021/10/14 15:48:22;;;;;;;6.37;5.13;;;;;;;;;;6238316;28;20193;-49
2021/10/14 15:51:42;;;;;;;12.50;5.80;;;;;;;;;;6235525;28;20239;-50
2021/10/14 15:55:05;;;;;;;9.70;5.77;;;;;;;;;;6238007;28;20614;-51
2021/10/14 15:58:25;;;;;;;6.37;5.20;;;;;;;;;;6235103;28;20233;-49
2021/10/14 16:01:46;;;;;;;10.50;5.67;;;;;;;;;;6234665;28;20267;-52
2021/10/14 16:05:07;;;;;;;6.00;5.33;;;;;;;;;;6236282;28;20235;-52
2021/10/14 16:08:27;;;;;;;6.43;4.97;;;;;;;;;;6233628;28;20391;-50
2021/10/14 16:11:51;;;;;;;6.23;5.10;;;;;;;;;;6229970;28;20253;-53
2021/10/14 16:15:12;;;;;;;5.17;4.70;;;;;;;;;;6234565;28;20252;-53
2021/10/14 16:18:34;;;;;;;7.37;5.03;;;;;;;;;;6227554;28;20560;-52
2021/10/14 16:21:54;;;;;;;5.97;5.00;;;;;;;;;;6231484;28;20319;-49
2021/10/14 16:25:15;;;;;;;6.40;4.97;;;;;;;;;;6231803;28;20236;-51
2021/10/14 16:28:37;;;;;;;7.30;5.37;;;;;;;;;;6233865;28;20192;-52
2021/10/14 16:31:59;;;;;;;7.57;5.00;;;;;;;;;;6229122;28;20242;-52
2021/10/14 16:35:19;;;;;;;6.07;5.47;;;;;;;;;;6228763;28;20236;-55
2021/10/14 16:38:39;;;;;;;6.80;4.97;;;;;;;;;;6232509;28;20598;-52
2021/10/14 16:42:00;;;;;;;5.57;4.30;;;;;;;;;;6239883;28;20263;-51
2021/10/14 16:45:22;;;;;;;7.43;5.93;;;;;;;;;;6234093;28;20316;-55
2021/10/14 16:48:44;;;;;;;5.93;4.73;;;;;;;;;;6235768;28;20209;-50
2021/10/14 16:52:04;;;;;;;9.20;5.90;;;;;;;;;;6237374;28;20267;-52
2021/10/14 16:55:25;;;;;;;6.20;4.47;;;;;;;;;;6237266;28;20217;-53
2021/10/14 16:58:45;;;;;;;6.70;5.03;;;;;;;;;;6237790;28;20222;-50
2021/10/14 17:02:07;;;;;;;8.40;4.83;;;;;;;;;;6235751;28;20685;-53
2021/10/14 17:05:32;;;;;;;6.97;4.43;;;;;;;;;;6238345;28;20363;-49
2021/10/14 17:08:55;;;;;;;7.50;5.67;;;;;;;;;;6240405;28;20212;-51
2021/10/14 17:12:15;;;;;;;8.23;5.93;;;;;;;;;;6240642;28;20232;-51
2021/10/14 17:15:36;;;;;;;8.70;5.70;;;;;;;;;;6234201;28;20378;-51
2021/10/14 17:19:04;;;;;;;10.27;5.43;;;;;;;;;;6234799;28;20594;-54
2021/10/14 17:22:52;;;;;;;7.67;5.53;;;;;;;;;;6238942;28;20228;-53
2021/10/14 17:37:25;;;;;;;5.60;4.63;;;;;;;;;;6219993;28;20739;-54
2021/10/14 17:40:52;;;;;;;8.50;5.20;;;;;;;;;;6229885;28;22107;-61
2021/10/14 17:44:13;;;;;;;9.40;5.70;;;;;;;;;;6231469;28;20205;-50
2021/10/14 17:47:39;;;;;;;6.27;4.80;;;;;;;;;;6225557;28;20229;-54
2021/10/14 17:51:00;;;;;;;5.43;4.67;;;;;;;;;;6230786;28;20230;-52
2021/10/14 17:54:22;;;;;;;7.30;4.77;;;;;;;;;;6230671;28;20213;-55
2021/10/14 17:57:43;;;;;;;5.70;4.80;;;;;;;;;;6237564;28;20212;-50
2021/10/14 18:01:04;;;;;;;7.47;6.00;;;;;;;;;;6229737;28;20246;-52
2021/10/14 18:04:31;;;;;;;7.13;5.33;;;;;;;;;;6239930;28;20431;-52
2021/10/14 18:34:17;;;;;;;6.93;6.23;;;;;;;;;;6233323;28;20209;-50
2021/10/14 18:41:16;;;;;;;10.73;6.27;;;;;;;;;;6233231;28;20248;-49
2021/10/14 18:44:37;;;;;;;9.17;8.13;;;;;;;;;;6231076;28;20197;-51
2021/10/14 18:47:59;;;;;;;9.97;7.27;;;;;;;;;;6230342;28;20539;-48
2021/10/14 18:51:21;;;;;;;6.93;5.73;;;;;;;;;;6235464;28;20220;-53
2021/10/14 18:54:41;;;;;;;7.73;6.93;;;;;;;;;;6235757;28;20205;-52
2021/10/14 18:58:03;;;;;;;9.07;5.97;;;;;;;;;;6236967;28;20225;-52
2021/10/14 19:01:24;;;;;;;8.03;6.00;;;;;;;;;;6230732;28;20261;-53
2021/10/14 19:04:59;;;;;;;6.60;5.43;;;;;;;;;;6234815;28;20284;-52
2021/10/14 19:08:32;;;;;;;9.33;6.93;;;;;;;;;;6238091;28;20189;-52
2021/10/14 19:15:33;;;;;;;6.77;6.17;;;;;;;;;;6231772;28;20235;-54
2021/10/14 19:19:09;;;;;;;6.40;5.80;;;;;;;;;;6228982;28;20958;-49
2021/10/14 20:20:46;;;;;;;6.37;5.60;;;;;;;;;;6212411;28;20252;-52
2021/10/14 20:24:06;;;;;;;5.50;4.87;;;;;;;;;;6218640;28;20533;-53
2021/10/14 20:27:28;;;;;;;8.03;5.33;;;;;;;;;;6213288;28;20237;-48
2021/10/14 20:30:48;;;;;;;5.43;4.97;;;;;;;;;;6214842;28;20229;-51
2021/10/14 20:34:12;;;;;;;6.90;4.90;;;;;;;;;;6216504;28;20190;-51
2021/10/14 20:37:33;;;;;;;7.17;6.03;;;;;;;;;;6221515;28;20295;-53
2021/10/14 20:40:53;;;;;;;8.60;5.03;;;;;;;;;;6209006;28;20256;-52
2021/10/14 20:44:14;;;;;;;5.93;4.87;;;;;;;;;;6211110;28;20222;-52
2021/10/14 20:47:35;;;;;;;8.13;5.10;;;;;;;;;;6204000;28;20233;-50
2021/10/14 20:50:57;;;;;;;5.37;4.73;;;;;;;;;;6209473;28;20233;-53
2021/10/14 20:54:24;;;;;;;5.77;4.70;;;;;;;;;;6213568;28;20666;-51
2021/10/14 21:05:01;;;;;;;6.97;4.67;;;;;;;;;;6206082;28;20237;-51
2021/10/14 21:08:23;;;;;;;8.30;4.77;;;;;;;;;;6210581;28;20233;-52
2021/10/14 21:11:43;;;;;;;5.17;4.63;;;;;;;;;;6209908;28;20229;-53
2021/10/14 21:15:05;;;;;;;8.37;5.20;;;;;;;;;;6210715;28;20217;-51
2021/10/14 21:18:25;;;;;;;5.07;4.40;;;;;;;;;;6213602;28;20222;-53
2021/10/14 21:21:45;;;;;;;6.07;4.53;;;;;;;;;;6204415;28;20225;-52
2021/10/14 21:25:08;;;;;;;7.27;4.80;;;;;;;;;;6208910;28;20320;-52
2021/10/14 21:28:31;;;;;;;8.23;5.13;;;;;;;;;;6210890;28;20308;-55
2021/10/14 21:32:14;;;;;;;8.37;4.37;;;;;;;;;;6203876;28;20232;-50
2021/10/14 21:35:45;;;;;;;6.87;4.70;;;;;;;;;;6209025;28;20221;-52
2021/10/14 21:39:06;;;;;;;4.43;3.87;;;;;;;;;;6205069;28;20225;-55
2021/10/14 21:42:28;;;;;;;6.67;5.27;;;;;;;;;;6207399;28;20328;-51
2021/10/14 21:45:49;;;;;;;7.33;4.90;;;;;;;;;;6201841;28;20241;-55
2021/10/14 21:49:09;;;;;;;8.43;4.87;;;;;;;;;;6206045;28;20209;-52
2021/10/14 21:52:31;;;;;;;6.47;4.53;;;;;;;;;;6200442;28;20232;-53